createdAt,value
2023-04-27T00:00:31.430Z,9.90
2023-04-27T00:03:05.463Z,9.80
2023-04-27T00:05:36.358Z,9.80
2023-04-27T00:08:05.661Z,9.80
2023-04-27T00:10:38.980Z,9.80
2023-04-27T00:13:08.293Z,9.80
2023-04-27T00:15:42.968Z,9.80
2023-04-27T00:18:14.969Z,9.70
2023-04-27T00:20:47.062Z,9.70
2023-04-27T00:23:20.159Z,9.60
2023-04-27T00:25:54.171Z,9.50
2023-04-27T00:28:29.752Z,9.60
2023-04-27T00:30:59.711Z,9.50
2023-04-27T00:33:33.690Z,9.40
2023-04-27T00:36:02.299Z,9.50
2023-04-27T00:38:39.363Z,9.50
2023-04-27T00:41:17.061Z,9.40
2023-04-27T00:43:47.138Z,9.40
2023-04-27T00:46:19.716Z,9.30
2023-04-27T00:48:49.314Z,9.50
2023-04-27T00:51:18.869Z,9.40
2023-04-27T00:53:51.985Z,9.40
2023-04-27T00:56:23.016Z,9.30
2023-04-27T00:58:52.891Z,9.30
2023-04-27T01:01:21.699Z,9.40
2023-04-27T01:03:50.758Z,9.30
2023-04-27T01:06:19.585Z,9.30
2023-04-27T01:08:48.555Z,9.30
2023-04-27T01:11:17.790Z,9.30
2023-04-27T01:13:57.030Z,9.10
2023-04-27T01:16:28.015Z,9.10
2023-04-27T01:19:05.173Z,9.30
2023-04-27T01:21:38.443Z,9.10
2023-04-27T01:24:27.587Z,9.10
2023-04-27T01:27:15.576Z,9.10
2023-04-27T01:30:04.419Z,9.10
2023-04-27T01:32:52.647Z,9.00
2023-04-27T01:35:22.800Z,8.90
2023-04-27T01:38:06.480Z,9.00
2023-04-27T01:40:44.043Z,8.90
2023-04-27T01:43:32.554Z,8.90
2023-04-27T01:46:20.602Z,8.80
2023-04-27T01:49:08.646Z,8.90
2023-04-27T01:51:56.456Z,8.90
2023-04-27T01:54:44.493Z,8.80
2023-04-27T01:57:33.630Z,8.80
2023-04-27T02:00:08.158Z,8.80
2023-04-27T02:02:36.661Z,8.80
2023-04-27T02:05:05.475Z,8.80
2023-04-27T02:07:33.922Z,8.80
2023-04-27T02:10:02.210Z,8.70
2023-04-27T02:12:34.721Z,8.80
2023-04-27T02:15:03.604Z,8.70
2023-04-27T02:17:34.149Z,8.50
2023-04-27T02:20:03.015Z,8.70
2023-04-27T02:22:31.177Z,8.70
2023-04-27T02:25:00.181Z,8.70
2023-04-27T02:27:28.780Z,8.50
2023-04-27T02:29:58.854Z,8.60
2023-04-27T02:32:27.846Z,8.70
2023-04-27T02:34:56.811Z,8.60
2023-04-27T02:37:25.265Z,8.70
2023-04-27T02:39:53.739Z,8.60
2023-04-27T02:42:22.874Z,8.60
2023-04-27T02:44:51.076Z,8.70
2023-04-27T02:47:20.637Z,8.60
2023-04-27T02:49:49.032Z,8.60
2023-04-27T02:52:17.222Z,8.60
2023-04-27T02:54:45.638Z,8.60
2023-04-27T02:57:13.804Z,8.70
2023-04-27T02:59:42.222Z,8.70
2023-04-27T03:02:10.624Z,8.60
2023-04-27T03:04:40.308Z,8.60
2023-04-27T03:07:08.622Z,8.70
2023-04-27T03:09:37.080Z,8.60
2023-04-27T03:12:05.927Z,8.70
2023-04-27T03:14:34.243Z,8.70
2023-04-27T03:17:03.364Z,8.70
2023-04-27T03:19:31.653Z,8.60
2023-04-27T03:22:01.226Z,8.60
2023-04-27T03:24:29.467Z,8.60
2023-04-27T03:26:57.582Z,8.70
2023-04-27T03:29:25.978Z,8.70
2023-04-27T03:31:54.229Z,8.60
2023-04-27T03:34:23.607Z,8.70
2023-04-27T03:36:52.242Z,8.70
2023-04-27T03:39:21.685Z,8.60
2023-04-27T03:41:49.859Z,8.60
2023-04-27T03:44:18.288Z,8.60
2023-04-27T03:46:46.427Z,8.60
2023-04-27T03:49:14.846Z,8.60
2023-04-27T03:51:44.165Z,8.70
2023-04-27T03:54:12.435Z,8.60
2023-04-27T03:56:42.206Z,8.60
2023-04-27T03:59:10.445Z,8.70
2023-04-27T04:01:40.113Z,8.70
2023-04-27T04:04:08.505Z,8.60
2023-04-27T04:06:37.510Z,8.60
2023-04-27T04:09:19.020Z,8.70
2023-04-27T04:11:48.835Z,8.70
2023-04-27T04:14:17.038Z,8.60
2023-04-27T04:16:45.752Z,8.70
2023-04-27T04:19:14.691Z,8.70
2023-04-27T04:21:43.156Z,8.80
2023-04-27T04:24:11.626Z,8.70
2023-04-27T04:26:39.920Z,8.60
2023-04-27T04:29:11.210Z,8.80
2023-04-27T04:31:40.544Z,8.60
2023-04-27T04:34:10.112Z,8.70
2023-04-27T04:36:40.604Z,8.80
2023-04-27T04:39:09.174Z,8.80
2023-04-27T04:41:37.999Z,8.70
2023-04-27T04:44:06.631Z,8.70
2023-04-27T04:46:37.508Z,8.90
2023-04-27T04:49:06.617Z,8.80
2023-04-27T04:51:35.111Z,8.80
2023-04-27T04:54:03.794Z,8.90
2023-04-27T04:56:32.401Z,8.90
2023-04-27T04:59:01.114Z,8.80
2023-04-27T05:01:30.309Z,8.80
2023-04-27T05:04:01.181Z,8.80
2023-04-27T05:06:29.706Z,8.90
2023-04-27T05:08:58.440Z,8.90
2023-04-27T05:11:26.771Z,9.00
2023-04-27T05:13:55.040Z,9.10
2023-04-27T05:16:23.457Z,9.00
2023-04-27T05:18:51.745Z,9.10
2023-04-27T05:21:22.176Z,9.00
2023-04-27T05:23:50.717Z,9.10
2023-04-27T05:26:19.734Z,9.10
2023-04-27T05:28:49.610Z,9.10
2023-04-27T05:31:18.818Z,9.30
2023-04-27T05:33:47.399Z,9.30
2023-04-27T05:36:15.653Z,9.40
2023-04-27T05:38:45.135Z,9.40
2023-04-27T05:41:13.459Z,9.40
2023-04-27T05:43:41.693Z,9.40
2023-04-27T05:46:14.112Z,9.50
2023-04-27T05:48:42.620Z,9.50
2023-04-27T05:51:10.912Z,9.70
2023-04-27T05:53:42.774Z,9.80
2023-04-27T05:56:12.744Z,9.80
2023-04-27T05:58:42.173Z,9.90
2023-04-27T06:01:10.670Z,9.90
2023-04-27T06:03:39.225Z,10.10
2023-04-27T06:06:08.694Z,10.10
2023-04-27T06:08:37.525Z,10.30
2023-04-27T06:11:06.517Z,10.40
2023-04-27T06:13:37.698Z,10.50
2023-04-27T06:16:07.185Z,10.60
2023-04-27T06:18:35.571Z,10.70
2023-04-27T06:21:07.202Z,11.00
2023-04-27T06:23:36.199Z,11.10
2023-04-27T06:26:05.459Z,11.10
2023-04-27T06:28:33.944Z,11.10
2023-04-27T06:31:03.789Z,11.30
2023-04-27T06:33:33.085Z,11.30
2023-04-27T06:36:02.469Z,11.40
2023-04-27T06:38:30.986Z,11.50
2023-04-27T06:40:59.632Z,11.70
2023-04-27T06:43:28.241Z,11.90
2023-04-27T06:45:56.765Z,11.90
2023-04-27T06:48:26.988Z,11.80
2023-04-27T06:50:55.498Z,11.90
2023-04-27T06:53:24.995Z,12.10
2023-04-27T06:55:53.236Z,12.20
2023-04-27T06:58:23.315Z,12.40
2023-04-27T07:00:53.726Z,12.60
2023-04-27T07:03:22.359Z,12.60
2023-04-27T07:05:53.112Z,12.70
2023-04-27T07:08:21.897Z,12.60
2023-04-27T07:10:50.095Z,12.80
2023-04-27T07:13:18.830Z,12.90
2023-04-27T07:15:47.678Z,13.00
2023-04-27T07:18:16.525Z,13.20
2023-04-27T07:20:44.944Z,13.20
2023-04-27T07:23:14.630Z,13.40
2023-04-27T07:25:43.624Z,13.50
2023-04-27T07:28:11.975Z,13.50
2023-04-27T07:30:40.746Z,13.50
2023-04-27T07:33:09.840Z,13.50
2023-04-27T07:35:38.145Z,13.60
2023-04-27T07:38:07.585Z,13.70
2023-04-27T07:40:48.991Z,13.80
2023-04-27T07:43:17.859Z,14.00
2023-04-27T07:45:46.542Z,14.10
2023-04-27T07:48:14.827Z,14.30
2023-04-27T07:50:43.547Z,14.50
2023-04-27T07:53:11.833Z,14.50
2023-04-27T07:55:40.870Z,14.60
2023-04-27T07:58:11.240Z,14.80
2023-04-27T08:00:39.721Z,15.00
2023-04-27T08:03:09.267Z,15.10
2023-04-27T08:05:38.482Z,15.40
2023-04-27T08:08:07.542Z,15.50
2023-04-27T08:10:38.077Z,15.70
2023-04-27T08:13:09.742Z,15.70
2023-04-27T08:15:39.522Z,15.90
2023-04-27T08:18:08.775Z,15.90
2023-04-27T08:20:37.629Z,16.00
2023-04-27T08:23:06.948Z,16.20
2023-04-27T08:25:37.739Z,16.30
2023-04-27T08:28:06.447Z,16.40
2023-04-27T08:30:34.723Z,16.50
2023-04-27T08:33:04.853Z,16.50
2023-04-27T08:35:33.925Z,16.60
2023-04-27T08:38:03.164Z,16.70
2023-04-27T08:40:31.516Z,16.70
2023-04-27T08:43:01.106Z,16.80
2023-04-27T08:45:29.795Z,16.90
2023-04-27T08:47:58.632Z,17.10
2023-04-27T08:50:28.640Z,17.20
2023-04-27T08:52:57.105Z,17.30
2023-04-27T08:55:25.575Z,17.30
2023-04-27T08:57:58.273Z,17.40
2023-04-27T09:00:27.950Z,17.40
2023-04-27T09:02:57.206Z,17.60
2023-04-27T09:05:25.665Z,17.70
2023-04-27T09:08:00.785Z,17.40
2023-04-27T09:10:29.921Z,17.20
2023-04-27T09:13:01.234Z,17.00
2023-04-27T09:15:29.940Z,16.90
2023-04-27T09:17:59.207Z,16.80
2023-04-27T09:20:28.598Z,17.00
2023-04-27T09:22:58.727Z,17.20
2023-04-27T09:25:31.379Z,17.40
2023-04-27T09:28:02.162Z,17.60
2023-04-27T09:30:31.053Z,17.80
2023-04-27T09:33:02.281Z,17.80
2023-04-27T09:35:32.349Z,17.80
2023-04-27T09:38:02.250Z,18.10
2023-04-27T09:40:32.079Z,18.10
2023-04-27T09:43:02.431Z,18.10
2023-04-27T09:45:30.879Z,18.00
2023-04-27T09:47:59.737Z,18.00
2023-04-27T09:50:28.642Z,17.90
2023-04-27T09:52:58.122Z,17.80
2023-04-27T09:55:33.658Z,17.80
2023-04-27T09:58:22.854Z,17.70
2023-04-27T10:01:01.262Z,17.70
2023-04-27T10:03:34.119Z,17.60
2023-04-27T10:06:44.495Z,17.50
2023-04-27T10:09:14.772Z,17.80
2023-04-27T10:11:45.161Z,18.00
2023-04-27T10:14:18.938Z,18.20
2023-04-27T10:16:51.976Z,18.40
2023-04-27T10:19:21.554Z,18.60
2023-04-27T10:22:00.226Z,18.80
2023-04-27T10:24:38.737Z,18.90
2023-04-27T10:27:09.635Z,18.90
2023-04-27T10:29:40.159Z,19.10
2023-04-27T10:32:10.093Z,19.20
2023-04-27T10:34:39.075Z,19.10
2023-04-27T10:37:10.273Z,19.00
2023-04-27T10:39:48.556Z,18.90
2023-04-27T10:42:29.363Z,18.90
2023-04-27T10:45:02.232Z,18.80
2023-04-27T10:47:42.273Z,18.70
2023-04-27T10:50:13.600Z,18.60
2023-04-27T10:52:42.989Z,18.60
2023-04-27T10:55:19.258Z,18.60
2023-04-27T10:57:55.944Z,18.60
2023-04-27T11:00:26.933Z,18.80
2023-04-27T11:02:57.694Z,19.00
2023-04-27T11:05:36.563Z,18.90
2023-04-27T11:08:08.358Z,18.80
2023-04-27T11:10:41.234Z,18.70
2023-04-27T11:13:13.046Z,18.70
2023-04-27T11:15:46.337Z,18.90
2023-04-27T11:18:16.643Z,19.10
2023-04-27T11:20:47.248Z,19.10
2023-04-27T11:23:25.623Z,19.10
2023-04-27T11:25:54.919Z,19.00
2023-04-27T11:28:26.018Z,19.00
2023-04-27T11:30:59.239Z,18.90
2023-04-27T11:33:29.186Z,18.80
2023-04-27T11:35:58.194Z,18.70
2023-04-27T11:38:28.013Z,18.80
2023-04-27T11:41:07.721Z,18.70
2023-04-27T11:43:41.789Z,18.70
2023-04-27T11:46:11.246Z,18.70
2023-04-27T11:48:44.835Z,18.60
2023-04-27T11:51:13.778Z,18.50
2023-04-27T11:53:43.855Z,18.50
2023-04-27T11:56:24.469Z,18.40
2023-04-27T11:58:57.046Z,18.50
2023-04-27T12:01:37.091Z,18.70
2023-04-27T12:04:06.948Z,18.90
2023-04-27T12:09:24.858Z,19.20
2023-04-27T12:11:57.352Z,19.30
2023-04-27T12:14:27.206Z,19.40
2023-04-27T12:16:55.479Z,19.60
2023-04-27T12:19:25.451Z,19.80
2023-04-27T12:21:54.077Z,19.80
2023-04-27T12:24:22.253Z,19.80
2023-04-27T12:26:51.614Z,19.80
2023-04-27T12:29:20.531Z,20.10
2023-04-27T12:31:50.304Z,20.20
2023-04-27T12:34:19.048Z,20.40
2023-04-27T12:36:47.341Z,20.70
2023-04-27T12:39:17.097Z,20.80
2023-04-27T12:41:47.386Z,21.00
2023-04-27T12:44:16.657Z,21.10
2023-04-27T12:46:45.967Z,21.20
2023-04-27T12:49:15.565Z,21.20
2023-04-27T12:51:44.121Z,21.20
2023-04-27T12:54:12.975Z,21.00
2023-04-27T12:56:41.921Z,20.90
2023-04-27T12:59:11.000Z,20.50
2023-04-27T13:01:39.312Z,20.40
2023-04-27T13:04:08.949Z,20.20
2023-04-27T13:06:39.616Z,20.10
2023-04-27T13:09:08.212Z,20.00
2023-04-27T13:11:37.519Z,19.90
2023-04-27T13:14:09.878Z,19.80
2023-04-27T13:16:38.566Z,19.80
2023-04-27T13:19:08.985Z,19.90
2023-04-27T13:21:39.138Z,20.00
2023-04-27T13:24:08.306Z,20.00
2023-04-27T13:26:36.579Z,20.00
2023-04-27T13:29:05.008Z,19.90
2023-04-27T13:31:33.670Z,19.90
2023-04-27T13:34:04.678Z,19.70
2023-04-27T13:36:32.818Z,19.50
2023-04-27T13:39:02.840Z,19.50
2023-04-27T13:41:33.308Z,19.40
2023-04-27T13:44:01.747Z,19.30
2023-04-27T13:46:30.325Z,19.20
2023-04-27T13:48:58.584Z,19.10
2023-04-27T13:51:29.689Z,19.20
2023-04-27T13:53:57.966Z,19.10
2023-04-27T13:56:27.535Z,19.00
2023-04-27T13:58:56.370Z,19.00
2023-04-27T14:01:27.098Z,19.20
2023-04-27T14:03:56.070Z,19.10
2023-04-27T14:06:25.064Z,19.10
2023-04-27T14:08:55.639Z,19.20
2023-04-27T14:11:24.259Z,19.20
2023-04-27T14:13:53.781Z,19.30
2023-04-27T14:16:24.320Z,19.30
2023-04-27T14:18:53.472Z,19.40
2023-04-27T14:21:25.961Z,19.50
2023-04-27T14:23:54.879Z,19.50
2023-04-27T14:26:24.587Z,19.60
2023-04-27T14:28:58.029Z,19.60
2023-04-27T14:31:28.204Z,19.60
2023-04-27T14:33:57.529Z,19.70
2023-04-27T14:36:25.816Z,19.70
2023-04-27T14:38:53.983Z,19.50
2023-04-27T14:41:22.801Z,19.50
2023-04-27T14:43:51.010Z,19.50
2023-04-27T14:46:21.538Z,19.50
2023-04-27T14:48:51.616Z,19.50
2023-04-27T14:51:20.103Z,19.40
2023-04-27T14:53:48.363Z,19.40
2023-04-27T14:56:17.188Z,19.30
2023-04-27T14:58:45.675Z,19.20
2023-04-27T15:01:14.925Z,19.20
2023-04-27T15:03:48.578Z,19.20
2023-04-27T15:06:16.977Z,19.10
2023-04-27T15:08:47.220Z,19.10
2023-04-27T15:11:16.151Z,19.10
2023-04-27T15:13:44.460Z,19.00
2023-04-27T15:16:13.243Z,19.00
2023-04-27T15:18:42.254Z,19.00
2023-04-27T15:21:12.556Z,18.90
2023-04-27T15:23:40.841Z,18.90
2023-04-27T15:26:08.980Z,18.80
2023-04-27T15:28:38.488Z,18.80
2023-04-27T15:31:12.667Z,18.80
2023-04-27T15:33:43.684Z,18.70
2023-04-27T15:36:17.585Z,18.70
2023-04-27T15:39:10.640Z,18.70
2023-04-27T15:41:41.988Z,18.60
2023-04-27T15:44:13.722Z,18.60
2023-04-27T15:46:43.090Z,18.60
2023-04-27T15:49:16.673Z,18.50
2023-04-27T15:51:51.935Z,18.60
2023-04-27T15:54:33.010Z,18.60
2023-04-27T15:57:04.685Z,18.60
2023-04-27T15:59:34.031Z,18.60
2023-04-27T16:02:09.143Z,18.60
2023-04-27T16:04:40.096Z,18.60
2023-04-27T16:07:10.057Z,18.50
2023-04-27T16:09:43.646Z,18.50
2023-04-27T16:12:15.658Z,18.50
2023-04-27T16:14:51.991Z,18.50
2023-04-27T16:17:20.931Z,18.40
2023-04-27T16:19:50.616Z,18.20
2023-04-27T16:22:21.176Z,18.20
2023-04-27T16:24:49.586Z,18.20
2023-04-27T16:27:20.116Z,18.10
2023-04-27T16:29:49.114Z,18.00
2023-04-27T16:32:20.620Z,18.00
2023-04-27T16:34:49.216Z,17.90
2023-04-27T16:37:20.999Z,17.90
2023-04-27T16:39:49.558Z,17.90
2023-04-27T16:42:20.589Z,17.80
2023-04-27T16:44:53.617Z,17.70
2023-04-27T16:47:22.671Z,17.60
2023-04-27T16:49:58.544Z,17.50
2023-04-27T16:52:29.835Z,17.50
2023-04-27T16:54:58.513Z,17.40
2023-04-27T16:57:27.042Z,17.30
2023-04-27T16:59:55.434Z,17.30
2023-04-27T17:02:25.815Z,17.20
2023-04-27T17:04:55.950Z,17.20
2023-04-27T17:07:25.519Z,17.10
2023-04-27T17:09:56.288Z,17.10
2023-04-27T17:12:24.625Z,17.10
2023-04-27T17:14:52.803Z,17.00
2023-04-27T17:17:21.688Z,17.00
2023-04-27T17:19:51.220Z,16.90
2023-04-27T17:22:19.540Z,16.90
2023-04-27T17:24:48.899Z,16.80
2023-04-27T17:27:21.194Z,16.70
2023-04-27T17:29:49.747Z,16.70
2023-04-27T17:32:18.316Z,16.60
2023-04-27T17:34:47.492Z,16.50
2023-04-27T17:37:15.841Z,16.50
2023-04-27T17:39:44.248Z,16.40
2023-04-27T17:42:12.945Z,16.30
2023-04-27T17:44:42.796Z,16.30
2023-04-27T17:47:11.684Z,16.20
2023-04-27T17:49:40.012Z,16.10
2023-04-27T17:52:09.776Z,16.00
2023-04-27T17:54:38.089Z,15.90
2023-04-27T17:57:06.305Z,15.80
2023-04-27T17:59:34.622Z,15.80
2023-04-27T18:02:04.259Z,15.80
2023-04-27T18:04:33.044Z,15.70
2023-04-27T18:07:01.356Z,15.60
2023-04-27T18:09:32.986Z,15.50
2023-04-27T18:12:02.285Z,15.50
2023-04-27T18:14:30.832Z,15.30
2023-04-27T18:16:58.989Z,15.20
2023-04-27T18:19:28.883Z,15.20
2023-04-27T18:21:57.097Z,15.10
2023-04-27T18:24:29.720Z,15.10
2023-04-27T18:27:00.052Z,15.00
2023-04-27T18:29:29.948Z,15.00
2023-04-27T18:32:01.893Z,14.90
2023-04-27T18:34:31.989Z,14.90
2023-04-27T18:37:01.546Z,14.80
2023-04-27T18:39:31.573Z,14.70
2023-04-27T18:42:01.030Z,14.70
2023-04-27T18:44:29.773Z,14.70
2023-04-27T18:46:58.958Z,14.60
2023-04-27T18:49:27.738Z,14.60
2023-04-27T18:51:57.453Z,14.50
2023-04-27T18:54:25.924Z,14.50
2023-04-27T18:56:54.142Z,14.40
2023-04-27T18:59:22.919Z,14.50
2023-04-27T19:01:51.967Z,14.40
2023-04-27T19:04:20.631Z,14.40
2023-04-27T19:06:50.198Z,14.30
2023-04-27T19:09:19.844Z,14.30
2023-04-27T19:11:56.058Z,14.20
2023-04-27T19:14:30.818Z,14.20
2023-04-27T19:16:59.565Z,14.20
2023-04-27T19:19:29.152Z,14.20
2023-04-27T19:21:59.914Z,14.10
2023-04-27T19:24:29.977Z,14.20
2023-04-27T19:26:59.625Z,14.10
2023-04-27T19:29:28.280Z,14.20
2023-04-27T19:31:57.454Z,14.10
2023-04-27T19:34:25.994Z,14.00
2023-04-27T19:36:54.863Z,13.90
2023-04-27T19:39:23.365Z,14.00
2023-04-27T19:41:52.882Z,13.90
2023-04-27T19:44:22.524Z,13.90
2023-04-27T19:46:51.210Z,13.80
2023-04-27T19:49:19.595Z,13.80
2023-04-27T19:51:48.357Z,13.80
2023-04-27T19:54:18.810Z,13.80
2023-04-27T19:56:48.999Z,13.70
2023-04-27T19:59:18.760Z,13.70
2023-04-27T20:01:48.483Z,13.70
2023-04-27T20:04:18.341Z,13.70
2023-04-27T20:06:47.588Z,13.70
2023-04-27T20:09:15.955Z,13.60
2023-04-27T20:11:45.190Z,13.60
2023-04-27T20:14:13.870Z,13.60
2023-04-27T20:16:43.736Z,13.40
2023-04-27T20:19:15.304Z,13.50
2023-04-27T20:21:45.638Z,13.50
2023-04-27T20:24:14.465Z,13.40
2023-04-27T20:26:44.338Z,13.40
2023-04-27T20:29:12.601Z,13.30
2023-04-27T20:31:42.748Z,13.30
2023-04-27T20:34:13.847Z,13.30
2023-04-27T20:36:44.298Z,13.30
2023-04-27T20:39:13.556Z,13.20
2023-04-27T20:41:42.016Z,13.20
2023-04-27T20:44:10.344Z,13.20
2023-04-27T20:46:39.746Z,13.20
2023-04-27T20:49:09.367Z,13.20
2023-04-27T20:51:37.867Z,13.10
2023-04-27T20:54:06.442Z,13.10
2023-04-27T20:56:35.451Z,13.00
2023-04-27T20:59:04.454Z,13.10
2023-04-27T21:01:33.112Z,13.00
2023-04-27T21:04:01.672Z,13.10
2023-04-27T21:06:31.781Z,13.00
2023-04-27T21:09:00.480Z,13.00
2023-04-27T21:11:28.664Z,13.00
2023-04-27T21:13:57.393Z,13.00
2023-04-27T21:16:25.812Z,13.00
2023-04-27T21:18:54.175Z,12.90
2023-04-27T21:21:23.735Z,13.00
2023-04-27T21:24:04.268Z,13.00
2023-04-27T21:26:36.301Z,12.90
2023-04-27T21:29:05.970Z,12.80
2023-04-27T21:31:35.490Z,12.90
2023-04-27T21:34:04.405Z,12.90
2023-04-27T21:36:34.107Z,12.90
2023-04-27T21:39:03.906Z,12.90
2023-04-27T21:41:32.461Z,12.80
2023-04-27T21:44:02.568Z,12.80
2023-04-27T21:46:30.724Z,12.80
2023-04-27T21:48:59.224Z,12.70
2023-04-27T21:51:27.636Z,12.70
2023-04-27T21:53:56.313Z,12.70
2023-04-27T21:56:26.017Z,12.70
2023-04-27T21:58:55.071Z,12.70
2023-04-27T22:01:24.408Z,12.60
2023-04-27T22:03:53.906Z,12.50
2023-04-27T22:06:23.074Z,12.60
2023-04-27T22:08:51.887Z,12.50
2023-04-27T22:11:21.196Z,12.50
2023-04-27T22:13:51.255Z,12.60
2023-04-27T22:16:22.122Z,12.50
2023-04-27T22:18:51.881Z,12.50
2023-04-27T22:21:20.679Z,12.40
2023-04-27T22:23:49.292Z,12.50
2023-04-27T22:26:17.596Z,12.40
2023-04-27T22:28:46.130Z,12.40
2023-04-27T22:31:15.631Z,12.40
2023-04-27T22:34:46.160Z,12.40
2023-04-27T22:37:14.335Z,12.40
2023-04-27T22:39:44.882Z,12.40
2023-04-27T22:42:13.632Z,12.30
2023-04-27T22:44:42.194Z,12.40
2023-04-27T22:47:12.469Z,12.30
2023-04-27T22:49:40.804Z,12.20
2023-04-27T22:52:10.412Z,12.30
2023-04-27T22:54:38.671Z,12.30
2023-04-27T22:57:07.258Z,12.30
2023-04-27T22:59:35.704Z,12.30
2023-04-27T23:02:04.169Z,12.30
2023-04-27T23:04:33.657Z,12.20
2023-04-27T23:07:02.382Z,12.10
2023-04-27T23:09:31.076Z,12.20
2023-04-27T23:12:01.043Z,12.10
2023-04-27T23:14:30.299Z,12.20
2023-04-27T23:16:58.590Z,12.10
2023-04-27T23:19:26.798Z,12.10
2023-04-27T23:21:56.288Z,12.10
2023-04-27T23:24:24.410Z,12.10
2023-04-27T23:26:52.812Z,12.10
2023-04-27T23:29:21.258Z,12.10
2023-04-27T23:31:49.989Z,12.10
2023-04-27T23:34:18.416Z,11.90
2023-04-27T23:36:47.015Z,12.00
2023-04-27T23:39:16.766Z,12.00
2023-04-27T23:41:46.177Z,12.00
2023-04-27T23:44:14.867Z,11.90
2023-04-27T23:46:43.302Z,12.00
2023-04-27T23:49:12.126Z,12.00
2023-04-27T23:51:40.359Z,12.00
2023-04-27T23:54:08.826Z,11.90
2023-04-27T23:56:38.381Z,11.80
2023-04-27T23:59:06.681Z,11.90
